sensor_id;sensor_type;location;lat;lon;timestamp;pressure;altitude;pressure_sealevel;temperature;humidity
62458;BME280;48509;52.122;5.250;2023-11-21T00:02:46;101033.0;;;7.43;100.0
62458;BME280;48509;52.122;5.250;2023-11-21T00:04:22;101038.0;;;7.47;100.0
62458;BME280;48509;52.122;5.250;2023-11-21T00:05:59;101040.0;;;7.47;100.0
62458;BME280;48509;52.122;5.250;2023-11-21T00:09:11;101040.0;;;7.5;100.0
62458;BME280;48509;52.122;5.250;2023-11-21T00:10:47;101038.0;;;7.46;100.0
62458;BME280;48509;52.122;5.250;2023-11-21T00:12:23;101043.0;;;7.46;100.0
62458;BME280;48509;52.122;5.250;2023-11-21T00:13:59;101044.0;;;7.49;100.0
62458;BME280;48509;52.122;5.250;2023-11-21T00:17:11;101048.0;;;7.46;100.0
62458;BME280;48509;52.122;5.250;2023-11-21T00:18:47;101055.0;;;7.39;100.0
62458;BME280;48509;52.122;5.250;2023-11-21T00:20:23;101055.0;;;7.34;100.0
62458;BME280;48509;52.122;5.250;2023-11-21T00:23:36;101055.0;;;7.36;100.0
62458;BME280;48509;52.122;5.250;2023-11-21T00:25:12;101050.0;;;7.27;100.0
62458;BME280;48509;52.122;5.250;2023-11-21T00:26:49;101047.0;;;7.28;100.0
62458;BME280;48509;52.122;5.250;2023-11-21T00:30:03;101051.0;;;7.3;100.0
62458;BME280;48509;52.122;5.250;2023-11-21T00:31:39;101055.0;;;7.27;100.0
62458;BME280;48509;52.122;5.250;2023-11-21T00:33:15;101058.0;;;7.27;100.0
62458;BME280;48509;52.122;5.250;2023-11-21T00:34:51;101057.0;;;7.26;100.0
62458;BME280;48509;52.122;5.250;2023-11-21T00:38:03;101055.0;;;7.27;100.0
62458;BME280;48509;52.122;5.250;2023-11-21T00:39:39;101055.0;;;7.47;100.0
62458;BME280;48509;52.122;5.250;2023-11-21T00:41:16;101055.0;;;7.44;100.0
62458;BME280;48509;52.122;5.250;2023-11-21T00:44:28;101057.0;;;7.31;100.0
62458;BME280;48509;52.122;5.250;2023-11-21T00:46:04;101061.0;;;7.28;100.0
62458;BME280;48509;52.122;5.250;2023-11-21T00:47:40;101060.0;;;7.27;100.0
62458;BME280;48509;52.122;5.250;2023-11-21T00:50:52;101063.0;;;7.3;100.0
62458;BME280;48509;52.122;5.250;2023-11-21T00:52:28;101063.0;;;7.19;100.0
62458;BME280;48509;52.122;5.250;2023-11-21T00:54:05;101069.0;;;7.22;100.0
62458;BME280;48509;52.122;5.250;2023-11-21T00:57:17;101070.0;;;7.13;100.0
62458;BME280;48509;52.122;5.250;2023-11-21T00:58:54;101067.0;;;7.16;100.0
62458;BME280;48509;52.122;5.250;2023-11-21T01:00:30;101073.0;;;7.25;100.0
62458;BME280;48509;52.122;5.250;2023-11-21T01:02:06;101075.0;;;7.25;100.0
62458;BME280;48509;52.122;5.250;2023-11-21T01:05:18;101078.0;;;7.18;100.0
62458;BME280;48509;52.122;5.250;2023-11-21T01:06:54;101084.0;;;7.24;100.0
62458;BME280;48509;52.122;5.250;2023-11-21T01:08:30;101080.0;;;7.22;100.0
62458;BME280;48509;52.122;5.250;2023-11-21T01:11:43;101085.0;;;7.21;100.0
62458;BME280;48509;52.122;5.250;2023-11-21T01:13:19;101093.0;;;7.18;100.0
62458;BME280;48509;52.122;5.250;2023-11-21T01:14:55;101095.0;;;7.22;100.0
62458;BME280;48509;52.122;5.250;2023-11-21T01:18:08;101095.0;;;7.28;100.0
62458;BME280;48509;52.122;5.250;2023-11-21T01:19:44;101099.0;;;7.23;100.0
62458;BME280;48509;52.122;5.250;2023-11-21T01:21:20;101092.0;;;7.23;100.0
62458;BME280;48509;52.122;5.250;2023-11-21T01:24:32;101092.0;;;7.27;100.0
62458;BME280;48509;52.122;5.250;2023-11-21T01:26:08;101090.0;;;7.28;100.0
62458;BME280;48509;52.122;5.250;2023-11-21T01:27:44;101089.0;;;7.3;100.0
62458;BME280;48509;52.122;5.250;2023-11-21T01:29:20;101090.0;;;7.34;100.0
62458;BME280;48509;52.122;5.250;2023-11-21T01:32:32;101089.0;;;7.33;100.0
62458;BME280;48509;52.122;5.250;2023-11-21T01:34:08;101094.0;;;7.36;100.0
62458;BME280;48509;52.122;5.250;2023-11-21T01:35:44;101095.0;;;7.39;100.0
62458;BME280;48509;52.122;5.250;2023-11-21T01:38:57;101092.0;;;7.38;100.0
62458;BME280;48509;52.122;5.250;2023-11-21T01:40:33;101099.0;;;7.38;100.0
62458;BME280;48509;52.122;5.250;2023-11-21T01:42:09;101094.0;;;7.54;100.0
62458;BME280;48509;52.122;5.250;2023-11-21T01:45:21;101100.0;;;7.52;100.0
62458;BME280;48509;52.122;5.250;2023-11-21T01:46:57;101097.0;;;7.5;100.0
62458;BME280;48509;52.122;5.250;2023-11-21T01:48:34;101100.0;;;7.69;100.0
62458;BME280;48509;52.122;5.250;2023-11-21T01:50:14;101101.0;;;7.84;100.0
62458;BME280;48509;52.122;5.250;2023-11-21T01:53:28;101106.0;;;7.89;100.0
62458;BME280;48509;52.122;5.250;2023-11-21T01:55:06;101111.0;;;7.77;100.0
62458;BME280;48509;52.122;5.250;2023-11-21T01:56:43;101115.0;;;7.77;100.0
62458;BME280;48509;52.122;5.250;2023-11-21T01:59:58;101119.0;;;7.85;100.0
62458;BME280;48509;52.122;5.250;2023-11-21T02:01:37;101124.0;;;7.86;100.0
62458;BME280;48509;52.122;5.250;2023-11-21T02:03:13;101124.0;;;7.88;100.0
62458;BME280;48509;52.122;5.250;2023-11-21T02:04:49;101127.0;;;7.94;100.0
62458;BME280;48509;52.122;5.250;2023-11-21T02:08:02;101135.0;;;8.06;100.0
62458;BME280;48509;52.122;5.250;2023-11-21T02:09:37;101140.0;;;7.96;100.0
62458;BME280;48509;52.122;5.250;2023-11-21T02:11:13;101140.0;;;7.94;100.0
62458;BME280;48509;52.122;5.250;2023-11-21T02:14:27;101143.0;;;8.0;100.0
62458;BME280;48509;52.122;5.250;2023-11-21T02:16:05;101140.0;;;7.97;100.0
62458;BME280;48509;52.122;5.250;2023-11-21T02:17:41;101145.0;;;8.03;100.0
62458;BME280;48509;52.122;5.250;2023-11-21T02:20:56;101142.0;;;8.1;100.0
62458;BME280;48509;52.122;5.250;2023-11-21T02:22:34;101145.0;;;8.07;100.0
62458;BME280;48509;52.122;5.250;2023-11-21T02:24:15;101147.0;;;8.09;100.0
62458;BME280;48509;52.122;5.250;2023-11-21T02:25:51;101146.0;;;8.11;100.0
62458;BME280;48509;52.122;5.250;2023-11-21T02:29:03;101141.0;;;8.15;100.0
62458;BME280;48509;52.122;5.250;2023-11-21T02:30:40;101142.0;;;8.22;100.0
62458;BME280;48509;52.122;5.250;2023-11-21T02:32:16;101145.0;;;8.27;100.0
62458;BME280;48509;52.122;5.250;2023-11-21T02:35:28;101151.0;;;8.35;100.0
62458;BME280;48509;52.122;5.250;2023-11-21T02:37:04;101147.0;;;8.48;100.0
62458;BME280;48509;52.122;5.250;2023-11-21T02:38:40;101150.0;;;8.42;100.0
62458;BME280;48509;52.122;5.250;2023-11-21T02:41:52;101145.0;;;8.44;100.0
62458;BME280;48509;52.122;5.250;2023-11-21T02:43:28;101150.0;;;8.49;100.0
62458;BME280;48509;52.122;5.250;2023-11-21T02:45:06;101146.0;;;8.53;100.0
62458;BME280;48509;52.122;5.250;2023-11-21T02:46:42;101143.0;;;8.56;100.0
62458;BME280;48509;52.122;5.250;2023-11-21T02:49:55;101148.0;;;8.58;100.0
62458;BME280;48509;52.122;5.250;2023-11-21T02:51:31;101152.0;;;8.6;100.0
62458;BME280;48509;52.122;5.250;2023-11-21T02:53:08;101155.0;;;8.64;100.0
62458;BME280;48509;52.122;5.250;2023-11-21T02:56:20;101153.0;;;8.64;100.0
62458;BME280;48509;52.122;5.250;2023-11-21T02:57:56;101155.0;;;8.68;100.0
62458;BME280;48509;52.122;5.250;2023-11-21T02:59:32;101155.0;;;8.69;100.0
62458;BME280;48509;52.122;5.250;2023-11-21T03:02:45;101155.0;;;8.72;100.0
62458;BME280;48509;52.122;5.250;2023-11-21T03:04:20;101150.0;;;8.9;100.0
62458;BME280;48509;52.122;5.250;2023-11-21T03:05:57;101151.0;;;9.17;100.0
62458;BME280;48509;52.122;5.250;2023-11-21T03:09:09;101152.0;;;9.13;100.0
62458;BME280;48509;52.122;5.250;2023-11-21T03:10:45;101155.0;;;9.11;100.0
62458;BME280;48509;52.122;5.250;2023-11-21T03:12:21;101155.0;;;9.44;100.0
62458;BME280;48509;52.122;5.250;2023-11-21T03:13:57;101159.0;;;9.61;100.0
62458;BME280;48509;52.122;5.250;2023-11-21T03:17:09;101153.0;;;9.41;100.0
62458;BME280;48509;52.122;5.250;2023-11-21T03:18:45;101155.0;;;9.17;100.0
62458;BME280;48509;52.122;5.250;2023-11-21T03:20:21;101155.0;;;9.13;100.0
62458;BME280;48509;52.122;5.250;2023-11-21T03:23:34;101156.0;;;9.09;100.0
62458;BME280;48509;52.122;5.250;2023-11-21T03:25:10;101156.0;;;9.23;100.0
62458;BME280;48509;52.122;5.250;2023-11-21T03:26:46;101161.0;;;9.11;100.0
62458;BME280;48509;52.122;5.250;2023-11-21T03:29:58;101159.0;;;8.99;100.0
62458;BME280;48509;52.122;5.250;2023-11-21T03:31:34;101155.0;;;8.98;100.0
62458;BME280;48509;52.122;5.250;2023-11-21T03:33:10;101153.0;;;8.93;100.0
62458;BME280;48509;52.122;5.250;2023-11-21T03:34:55;101158.0;;;8.96;100.0
62458;BME280;48509;52.122;5.250;2023-11-21T03:38:07;101157.0;;;8.94;100.0
62458;BME280;48509;52.122;5.250;2023-11-21T03:39:45;101164.0;;;9.07;100.0
62458;BME280;48509;52.122;5.250;2023-11-21T03:41:21;101163.0;;;9.08;100.0
62458;BME280;48509;52.122;5.250;2023-11-21T03:44:34;101167.0;;;9.05;100.0
62458;BME280;48509;52.122;5.250;2023-11-21T03:46:10;101169.0;;;9.02;100.0
62458;BME280;48509;52.122;5.250;2023-11-21T03:47:46;101167.0;;;9.1;100.0
62458;BME280;48509;52.122;5.250;2023-11-21T03:50:58;101167.0;;;9.24;100.0
62458;BME280;48509;52.122;5.250;2023-11-21T03:52:34;101169.0;;;9.09;100.0
62458;BME280;48509;52.122;5.250;2023-11-21T03:54:10;101172.0;;;9.14;100.0
62458;BME280;48509;52.122;5.250;2023-11-21T03:55:46;101176.0;;;9.14;100.0
62458;BME280;48509;52.122;5.250;2023-11-21T03:58:58;101177.0;;;9.25;100.0
62458;BME280;48509;52.122;5.250;2023-11-21T04:00:35;101181.0;;;9.16;100.0
62458;BME280;48509;52.122;5.250;2023-11-21T04:02:11;101182.0;;;9.17;100.0
62458;BME280;48509;52.122;5.250;2023-11-21T04:05:23;101184.0;;;9.11;100.0
62458;BME280;48509;52.122;5.250;2023-11-21T04:06:59;101184.0;;;9.22;100.0
62458;BME280;48509;52.122;5.250;2023-11-21T04:08:35;101190.0;;;9.19;100.0
62458;BME280;48509;52.122;5.250;2023-11-21T04:11:47;101194.0;;;9.31;100.0
62458;BME280;48509;52.122;5.250;2023-11-21T04:13:23;101198.0;;;9.24;100.0
62458;BME280;48509;52.122;5.250;2023-11-21T04:14:59;101200.0;;;9.17;100.0
62458;BME280;48509;52.122;5.250;2023-11-21T04:16:35;101205.0;;;9.17;100.0
62458;BME280;48509;52.122;5.250;2023-11-21T04:19:48;101206.0;;;9.24;100.0
62458;BME280;48509;52.122;5.250;2023-11-21T04:21:24;101206.0;;;9.31;100.0
62458;BME280;48509;52.122;5.250;2023-11-21T04:23:00;101210.0;;;9.22;100.0
62458;BME280;48509;52.122;5.250;2023-11-21T04:26:12;101211.0;;;9.33;100.0
62458;BME280;48509;52.122;5.250;2023-11-21T04:27:48;101215.0;;;9.31;100.0
62458;BME280;48509;52.122;5.250;2023-11-21T04:29:24;101218.0;;;9.33;100.0
62458;BME280;48509;52.122;5.250;2023-11-21T04:32:36;101221.0;;;9.35;100.0
62458;BME280;48509;52.122;5.250;2023-11-21T04:34:12;101226.0;;;9.38;100.0
62458;BME280;48509;52.122;5.250;2023-11-21T04:35:49;101230.0;;;9.31;100.0
62458;BME280;48509;52.122;5.250;2023-11-21T04:39:01;101236.0;;;9.32;100.0
62458;BME280;48509;52.122;5.250;2023-11-21T04:40:37;101238.0;;;9.39;100.0
62458;BME280;48509;52.122;5.250;2023-11-21T04:42:13;101245.0;;;9.36;100.0
62458;BME280;48509;52.122;5.250;2023-11-21T04:43:49;101239.0;;;9.32;100.0
62458;BME280;48509;52.122;5.250;2023-11-21T04:47:01;101236.0;;;9.33;100.0
62458;BME280;48509;52.122;5.250;2023-11-21T04:48:38;101242.0;;;9.55;100.0
62458;BME280;48509;52.122;5.250;2023-11-21T04:50:14;101236.0;;;9.46;100.0
62458;BME280;48509;52.122;5.250;2023-11-21T04:53:27;101241.0;;;9.68;100.0
62458;BME280;48509;52.122;5.250;2023-11-21T04:55:03;101243.0;;;9.51;100.0
62458;BME280;48509;52.122;5.250;2023-11-21T04:56:40;101245.0;;;9.73;100.0
62458;BME280;48509;52.122;5.250;2023-11-21T04:59:53;101243.0;;;9.64;100.0
62458;BME280;48509;52.122;5.250;2023-11-21T05:01:29;101244.0;;;9.6;100.0
62458;BME280;48509;52.122;5.250;2023-11-21T05:03:06;101250.0;;;9.56;100.0
62458;BME280;48509;52.122;5.250;2023-11-21T05:04:42;101245.0;;;9.5;100.0
62458;BME280;48509;52.122;5.250;2023-11-21T05:07:54;101249.0;;;9.5;100.0
62458;BME280;48509;52.122;5.250;2023-11-21T05:09:31;101251.0;;;9.48;100.0
62458;BME280;48509;52.122;5.250;2023-11-21T05:11:06;101258.0;;;9.48;100.0
62458;BME280;48509;52.122;5.250;2023-11-21T05:14:19;101261.0;;;9.5;100.0
62458;BME280;48509;52.122;5.250;2023-11-21T05:15:55;101262.0;;;9.53;100.0
62458;BME280;48509;52.122;5.250;2023-11-21T05:17:32;101260.0;;;9.51;100.0
62458;BME280;48509;52.122;5.250;2023-11-21T05:20:44;101265.0;;;9.61;100.0
62458;BME280;48509;52.122;5.250;2023-11-21T05:22:20;101267.0;;;9.57;100.0
62458;BME280;48509;52.122;5.250;2023-11-21T05:23:56;101264.0;;;9.57;100.0
62458;BME280;48509;52.122;5.250;2023-11-21T05:27:09;101270.0;;;9.71;100.0
62458;BME280;48509;52.122;5.250;2023-11-21T05:28:46;101271.0;;;9.71;100.0
62458;BME280;48509;52.122;5.250;2023-11-21T05:30:22;101273.0;;;9.72;100.0
62458;BME280;48509;52.122;5.250;2023-11-21T05:31:58;101272.0;;;9.64;100.0
62458;BME280;48509;52.122;5.250;2023-11-21T05:35:10;101277.0;;;9.64;100.0
62458;BME280;48509;52.122;5.250;2023-11-21T05:36:46;101278.0;;;9.55;100.0
62458;BME280;48509;52.122;5.250;2023-11-21T05:38:22;101276.0;;;9.6;100.0
62458;BME280;48509;52.122;5.250;2023-11-21T05:41:34;101276.0;;;9.65;100.0
62458;BME280;48509;52.122;5.250;2023-11-21T05:43:10;101282.0;;;9.92;100.0
62458;BME280;48509;52.122;5.250;2023-11-21T05:44:46;101287.0;;;9.94;100.0
62458;BME280;48509;52.122;5.250;2023-11-21T05:47:59;101291.0;;;9.82;100.0
62458;BME280;48509;52.122;5.250;2023-11-21T05:49:35;101298.0;;;9.8;100.0
62458;BME280;48509;52.122;5.250;2023-11-21T05:51:11;101298.0;;;10.06;100.0
62458;BME280;48509;52.122;5.250;2023-11-21T05:54:23;101305.0;;;9.91;100.0
62458;BME280;48509;52.122;5.250;2023-11-21T05:55:59;101310.0;;;9.98;100.0
62458;BME280;48509;52.122;5.250;2023-11-21T05:57:38;101312.0;;;9.92;100.0
62458;BME280;48509;52.122;5.250;2023-11-21T05:59:14;101313.0;;;9.96;100.0
62458;BME280;48509;52.122;5.250;2023-11-21T06:02:26;101316.0;;;10.18;100.0
62458;BME280;48509;52.122;5.250;2023-11-21T06:04:03;101319.0;;;10.05;100.0
62458;BME280;48509;52.122;5.250;2023-11-21T06:05:38;101321.0;;;10.16;100.0
62458;BME280;48509;52.122;5.250;2023-11-21T06:08:51;101326.0;;;10.06;100.0
62458;BME280;48509;52.122;5.250;2023-11-21T06:10:27;101322.0;;;9.94;100.0
62458;BME280;48509;52.122;5.250;2023-11-21T06:12:03;101328.0;;;9.92;100.0
62458;BME280;48509;52.122;5.250;2023-11-21T06:15:15;101330.0;;;10.06;100.0
62458;BME280;48509;52.122;5.250;2023-11-21T06:16:51;101332.0;;;9.99;100.0
62458;BME280;48509;52.122;5.250;2023-11-21T06:18:27;101338.0;;;10.03;100.0
62458;BME280;48509;52.122;5.250;2023-11-21T06:20:05;101339.0;;;9.98;100.0
62458;BME280;48509;52.122;5.250;2023-11-21T06:23:21;101342.0;;;9.96;100.0
62458;BME280;48509;52.122;5.250;2023-11-21T06:24:57;101340.0;;;10.06;100.0
62458;BME280;48509;52.122;5.250;2023-11-21T06:26:34;101342.0;;;10.06;100.0
62458;BME280;48509;52.122;5.250;2023-11-21T06:29:46;101347.0;;;10.06;100.0
62458;BME280;48509;52.122;5.250;2023-11-21T06:31:22;101345.0;;;10.13;100.0
62458;BME280;48509;52.122;5.250;2023-11-21T06:32:58;101347.0;;;10.08;100.0
62458;BME280;48509;52.122;5.250;2023-11-21T06:36:10;101349.0;;;10.01;100.0
62458;BME280;48509;52.122;5.250;2023-11-21T06:37:46;101348.0;;;9.98;100.0
62458;BME280;48509;52.122;5.250;2023-11-21T06:39:22;101351.0;;;10.03;100.0
62458;BME280;48509;52.122;5.250;2023-11-21T06:40:59;101357.0;;;10.01;100.0
62458;BME280;48509;52.122;5.250;2023-11-21T06:44:11;101357.0;;;10.09;100.0
62458;BME280;48509;52.122;5.250;2023-11-21T06:45:47;101360.0;;;10.06;100.0
62458;BME280;48509;52.122;5.250;2023-11-21T06:47:23;101357.0;;;10.17;100.0
62458;BME280;48509;52.122;5.250;2023-11-21T06:50:35;101361.0;;;10.14;100.0
62458;BME280;48509;52.122;5.250;2023-11-21T06:52:11;101367.0;;;10.22;100.0
62458;BME280;48509;52.122;5.250;2023-11-21T06:53:47;101368.0;;;10.17;100.0
62458;BME280;48509;52.122;5.250;2023-11-21T06:56:59;101370.0;;;10.26;100.0
62458;BME280;48509;52.122;5.250;2023-11-21T06:58:35;101376.0;;;10.29;100.0
62458;BME280;48509;52.122;5.250;2023-11-21T07:00:13;101377.0;;;10.24;100.0
62458;BME280;48509;52.122;5.250;2023-11-21T07:03:27;101385.0;;;10.41;100.0
62458;BME280;48509;52.122;5.250;2023-11-21T07:05:03;101388.0;;;10.41;100.0
62458;BME280;48509;52.122;5.250;2023-11-21T07:06:40;101391.0;;;10.36;100.0
62458;BME280;48509;52.122;5.250;2023-11-21T07:08:16;101389.0;;;10.43;100.0
62458;BME280;48509;52.122;5.250;2023-11-21T07:11:28;101394.0;;;10.49;100.0
62458;BME280;48509;52.122;5.250;2023-11-21T07:13:04;101397.0;;;10.44;100.0
62458;BME280;48509;52.122;5.250;2023-11-21T07:14:40;101405.0;;;10.56;100.0
62458;BME280;48509;52.122;5.250;2023-11-21T07:17:52;101405.0;;;10.79;100.0
62458;BME280;48509;52.122;5.250;2023-11-21T07:19:28;101409.0;;;10.78;100.0
62458;BME280;48509;52.122;5.250;2023-11-21T07:21:05;101410.0;;;10.83;100.0
62458;BME280;48509;52.122;5.250;2023-11-21T07:24:17;101409.0;;;10.8;100.0
62458;BME280;48509;52.122;5.250;2023-11-21T07:25:53;101409.0;;;10.8;100.0
62458;BME280;48509;52.122;5.250;2023-11-21T07:27:29;101409.0;;;10.93;100.0
62458;BME280;48509;52.122;5.250;2023-11-21T07:29:05;101414.0;;;11.04;100.0
62458;BME280;48509;52.122;5.250;2023-11-21T07:32:18;101417.0;;;10.99;100.0
62458;BME280;48509;52.122;5.250;2023-11-21T07:33:55;101420.0;;;11.23;100.0
62458;BME280;48509;52.122;5.250;2023-11-21T07:35:31;101418.0;;;11.19;100.0
62458;BME280;48509;52.122;5.250;2023-11-21T07:38:44;101418.0;;;11.06;100.0
62458;BME280;48509;52.122;5.250;2023-11-21T07:40:20;101421.0;;;11.18;100.0
62458;BME280;48509;52.122;5.250;2023-11-21T07:41:56;101421.0;;;11.29;100.0
62458;BME280;48509;52.122;5.250;2023-11-21T07:45:08;101424.0;;;11.3;100.0
62458;BME280;48509;52.122;5.250;2023-11-21T07:46:44;101427.0;;;11.38;100.0
62458;BME280;48509;52.122;5.250;2023-11-21T07:48:20;101439.0;;;11.21;100.0
62458;BME280;48509;52.122;5.250;2023-11-21T07:51:32;101439.0;;;11.29;100.0
62458;BME280;48509;52.122;5.250;2023-11-21T07:53:08;101439.0;;;11.13;100.0
62458;BME280;48509;52.122;5.250;2023-11-21T07:54:44;101442.0;;;11.28;100.0
62458;BME280;48509;52.122;5.250;2023-11-21T07:56:20;101445.0;;;11.4;100.0
62458;BME280;48509;52.122;5.250;2023-11-21T07:59:33;101451.0;;;11.31;100.0
62458;BME280;48509;52.122;5.250;2023-11-21T08:01:09;101453.0;;;11.38;100.0
62458;BME280;48509;52.122;5.250;2023-11-21T08:05:57;101461.0;;;11.49;100.0
62458;BME280;48509;52.122;5.250;2023-11-21T08:07:34;101466.0;;;11.39;100.0
62458;BME280;48509;52.122;5.250;2023-11-21T08:09:10;101466.0;;;11.39;100.0
62458;BME280;48509;52.122;5.250;2023-11-21T08:12:22;101473.0;;;11.46;100.0
62458;BME280;48509;52.122;5.250;2023-11-21T08:13:59;101480.0;;;11.44;100.0
62458;BME280;48509;52.122;5.250;2023-11-21T08:15:34;101480.0;;;11.55;100.0
62458;BME280;48509;52.122;5.250;2023-11-21T08:17:11;101488.0;;;11.55;100.0
62458;BME280;48509;52.122;5.250;2023-11-21T08:20:23;101486.0;;;11.72;100.0
62458;BME280;48509;52.122;5.250;2023-11-21T08:21:59;101495.0;;;11.84;100.0
62458;BME280;48509;52.122;5.250;2023-11-21T08:23:35;101498.0;;;11.81;100.0
62458;BME280;48509;52.122;5.250;2023-11-21T08:26:47;101505.0;;;11.74;100.0
62458;BME280;48509;52.122;5.250;2023-11-21T08:28:23;101511.0;;;11.74;100.0
62458;BME280;48509;52.122;5.250;2023-11-21T08:30:00;101509.0;;;11.83;100.0
62458;BME280;48509;52.122;5.250;2023-11-21T08:33:12;101516.0;;;11.8;100.0
62458;BME280;48509;52.122;5.250;2023-11-21T08:34:48;101521.0;;;11.98;100.0
62458;BME280;48509;52.122;5.250;2023-11-21T08:36:24;101522.0;;;12.04;100.0
62458;BME280;48509;52.122;5.250;2023-11-21T08:39:38;101531.0;;;12.01;100.0
62458;BME280;48509;52.122;5.250;2023-11-21T08:41:14;101531.0;;;12.05;100.0
62458;BME280;48509;52.122;5.250;2023-11-21T08:42:51;101530.0;;;12.05;100.0
62458;BME280;48509;52.122;5.250;2023-11-21T08:44:26;101533.0;;;12.14;100.0
62458;BME280;48509;52.122;5.250;2023-11-21T08:47:39;101530.0;;;12.15;100.0
62458;BME280;48509;52.122;5.250;2023-11-21T08:49:15;101523.0;;;12.18;100.0
62458;BME280;48509;52.122;5.250;2023-11-21T08:50:51;101521.0;;;12.29;100.0
62458;BME280;48509;52.122;5.250;2023-11-21T08:54:03;101519.0;;;12.36;100.0
62458;BME280;48509;52.122;5.250;2023-11-21T08:55:39;101530.0;;;12.51;100.0
62458;BME280;48509;52.122;5.250;2023-11-21T08:57:15;101538.0;;;12.53;100.0
62458;BME280;48509;52.122;5.250;2023-11-21T09:00:27;101542.0;;;12.69;100.0
62458;BME280;48509;52.122;5.250;2023-11-21T09:02:04;101548.0;;;12.74;100.0
62458;BME280;48509;52.122;5.250;2023-11-21T09:03:39;101552.0;;;12.77;100.0
62458;BME280;48509;52.122;5.250;2023-11-21T09:06:52;101555.0;;;12.92;100.0
62458;BME280;48509;52.122;5.250;2023-11-21T09:08:28;101562.0;;;12.97;100.0
62458;BME280;48509;52.122;5.250;2023-11-21T09:10:05;101568.0;;;13.07;100.0
62458;BME280;48509;52.122;5.250;2023-11-21T09:11:41;101569.0;;;13.08;100.0
62458;BME280;48509;52.122;5.250;2023-11-21T09:14:53;101572.0;;;13.18;100.0
62458;BME280;48509;52.122;5.250;2023-11-21T09:16:29;101577.0;;;13.17;100.0
62458;BME280;48509;52.122;5.250;2023-11-21T09:18:05;101577.0;;;13.02;100.0
62458;BME280;48509;52.122;5.250;2023-11-21T09:21:17;101580.0;;;13.03;100.0
62458;BME280;48509;52.122;5.250;2023-11-21T09:22:53;101580.0;;;13.01;100.0
62458;BME280;48509;52.122;5.250;2023-11-21T09:24:29;101581.0;;;12.99;100.0
62458;BME280;48509;52.122;5.250;2023-11-21T09:27:42;101584.0;;;13.19;100.0
62458;BME280;48509;52.122;5.250;2023-11-21T09:29:18;101591.0;;;13.08;100.0
62458;BME280;48509;52.122;5.250;2023-11-21T09:30:54;101599.0;;;13.11;100.0
62458;BME280;48509;52.122;5.250;2023-11-21T09:32:30;101610.0;;;13.06;100.0
62458;BME280;48509;52.122;5.250;2023-11-21T09:35:42;101612.0;;;13.02;100.0
62458;BME280;48509;52.122;5.250;2023-11-21T09:37:18;101611.0;;;13.01;100.0
62458;BME280;48509;52.122;5.250;2023-11-21T09:38:54;101611.0;;;13.1;100.0
62458;BME280;48509;52.122;5.250;2023-11-21T09:42:10;101615.0;;;12.93;100.0
62458;BME280;48509;52.122;5.250;2023-11-21T09:43:47;101622.0;;;12.96;100.0
62458;BME280;48509;52.122;5.250;2023-11-21T09:45:29;101626.0;;;12.93;100.0
62458;BME280;48509;52.122;5.250;2023-11-21T09:47:09;101631.0;;;13.0;100.0
62458;BME280;48509;52.122;5.250;2023-11-21T09:50:27;101634.0;;;12.99;100.0
62458;BME280;48509;52.122;5.250;2023-11-21T09:52:05;101639.0;;;12.89;100.0
62458;BME280;48509;52.122;5.250;2023-11-21T09:53:46;101641.0;;;13.02;100.0
62458;BME280;48509;52.122;5.250;2023-11-21T09:57:03;101642.0;;;12.81;100.0
62458;BME280;48509;52.122;5.250;2023-11-21T09:58:40;101647.0;;;12.85;100.0
62458;BME280;48509;52.122;5.250;2023-11-21T10:00:18;101651.0;;;12.76;100.0
62458;BME280;48509;52.122;5.250;2023-11-21T10:01:56;101652.0;;;12.85;100.0
62458;BME280;48509;52.122;5.250;2023-11-21T10:05:11;101648.0;;;12.69;100.0
62458;BME280;48509;52.122;5.250;2023-11-21T10:06:47;101650.0;;;12.75;100.0
62458;BME280;48509;52.122;5.250;2023-11-21T10:08:24;101652.0;;;12.86;100.0
62458;BME280;48509;52.122;5.250;2023-11-21T10:11:40;101655.0;;;12.76;100.0
62458;BME280;48509;52.122;5.250;2023-11-21T10:13:17;101658.0;;;12.78;100.0
62458;BME280;48509;52.122;5.250;2023-11-21T10:14:54;101659.0;;;12.58;100.0
62458;BME280;48509;52.122;5.250;2023-11-21T10:16:34;101666.0;;;12.71;100.0
62458;BME280;48509;52.122;5.250;2023-11-21T10:19:47;101666.0;;;12.73;100.0
62458;BME280;48509;52.122;5.250;2023-11-21T10:21:24;101681.0;;;12.76;100.0
62458;BME280;48509;52.122;5.250;2023-11-21T10:23:00;101689.0;;;12.69;100.0
62458;BME280;48509;52.122;5.250;2023-11-21T10:26:13;101691.0;;;12.66;100.0
62458;BME280;48509;52.122;5.250;2023-11-21T10:27:49;101700.0;;;12.73;100.0
62458;BME280;48509;52.122;5.250;2023-11-21T10:29:29;101700.0;;;12.64;100.0
62458;BME280;48509;52.122;5.250;2023-11-21T10:31:06;101701.0;;;12.68;100.0
62458;BME280;48509;52.122;5.250;2023-11-21T10:34:19;101708.0;;;12.72;100.0
62458;BME280;48509;52.122;5.250;2023-11-21T10:35:57;101711.0;;;12.56;100.0
62458;BME280;48509;52.122;5.250;2023-11-21T10:37:33;101715.0;;;12.73;100.0
62458;BME280;48509;52.122;5.250;2023-11-21T10:40:51;101721.0;;;12.77;100.0
62458;BME280;48509;52.122;5.250;2023-11-21T10:42:27;101726.0;;;12.59;100.0
62458;BME280;48509;52.122;5.250;2023-11-21T10:44:03;101732.0;;;12.65;100.0
62458;BME280;48509;52.122;5.250;2023-11-21T10:47:16;101736.0;;;12.69;100.0
62458;BME280;48509;52.122;5.250;2023-11-21T10:48:53;101739.0;;;12.65;100.0
62458;BME280;48509;52.122;5.250;2023-11-21T10:50:28;101739.0;;;12.47;100.0
62458;BME280;48509;52.122;5.250;2023-11-21T10:52:04;101747.0;;;12.42;100.0
62458;BME280;48509;52.122;5.250;2023-11-21T10:55:17;101753.0;;;12.51;100.0
62458;BME280;48509;52.122;5.250;2023-11-21T10:56:57;101756.0;;;12.61;100.0
62458;BME280;48509;52.122;5.250;2023-11-21T10:58:35;101760.0;;;12.6;100.0
62458;BME280;48509;52.122;5.250;2023-11-21T11:01:51;101766.0;;;12.58;100.0
62458;BME280;48509;52.122;5.250;2023-11-21T11:03:28;101761.0;;;12.59;100.0
62458;BME280;48509;52.122;5.250;2023-11-21T11:05:05;101765.0;;;12.58;100.0
62458;BME280;48509;52.122;5.250;2023-11-21T11:06:42;101767.0;;;12.67;100.0
62458;BME280;48509;52.122;5.250;2023-11-21T11:09:58;101760.0;;;12.65;100.0
62458;BME280;48509;52.122;5.250;2023-11-21T11:11:34;101768.0;;;12.57;100.0
62458;BME280;48509;52.122;5.250;2023-11-21T11:13:11;101763.0;;;12.56;100.0